Time;durP1;ratioP1;P1;durP2;ratioP2;P2;SDS_P1;SDS_P2;PMS_P1;PMS_P2;Temp;Humidity;BMP_temperature;BMP_pressure;BME280_temperature;BME280_humidity;BME280_pressure;Samples;Min_cycle;Max_cycle;Signal;HPM_P1;HPM_P2
2021/01/25 00:00:18;;;;;;;14.88;11.48;;;22.90;30.30;;;;;;5042149;28;20083;-47
2021/01/25 00:02:44;;;;;;;13.90;11.02;;;22.80;30.20;;;;;;5045458;28;20025;-49
2021/01/25 00:05:10;;;;;;;12.95;10.43;;;22.80;30.20;;;;;;5042759;28;20028;-46
2021/01/25 00:07:36;;;;;;;11.35;9.90;;;22.80;30.20;;;;;;5050500;28;20037;-49
2021/01/25 00:10:06;;;;;;;12.38;10.18;;;22.80;30.20;;;;;;5045119;28;20025;-49
2021/01/25 00:12:33;;;;;;;10.52;9.38;;;22.80;30.20;;;;;;5051947;28;20061;-44
2021/01/25 00:14:59;;;;;;;11.43;9.55;;;22.80;30.20;;;;;;5043753;28;20044;-49
2021/01/25 00:17:24;;;;;;;10.32;8.75;;;22.80;30.20;;;;;;5037459;28;20115;-47
2021/01/25 00:19:50;;;;;;;10.52;8.98;;;22.70;30.10;;;;;;5042940;28;20432;-43
2021/01/25 00:22:16;;;;;;;10.73;8.32;;;22.70;30.10;;;;;;5032547;28;20064;-47
2021/01/25 00:24:42;;;;;;;10.45;8.98;;;22.70;30.10;;;;;;5036321;28;20033;-43
2021/01/25 00:27:09;;;;;;;11.20;8.68;;;22.70;30.10;;;;;;5040558;28;20125;-45
2021/01/25 00:29:35;;;;;;;9.73;8.73;;;22.70;30.10;;;;;;5046200;28;20104;-43
2021/01/25 00:32:00;;;;;;;10.88;8.45;;;22.70;30.10;;;;;;5048348;28;20112;-48
2021/01/25 00:34:26;;;;;;;10.15;8.82;;;22.60;30.10;;;;;;5021935;28;20544;-49
2021/01/25 00:36:52;;;;;;;9.63;8.07;;;22.60;30.10;;;;;;5050250;28;20067;-48
2021/01/25 00:39:18;;;;;;;9.77;7.97;;;22.60;30.10;;;;;;5051754;28;20053;-46
2021/01/25 00:41:44;;;;;;;9.85;8.30;;;22.60;30.10;;;;;;5037767;28;20087;-44
2021/01/25 00:44:10;;;;;;;9.73;8.10;;;22.60;30.10;;;;;;5047636;28;20072;-47
2021/01/25 00:46:36;;;;;;;9.18;7.45;;;22.60;30.10;;;;;;5038327;28;20030;-49
2021/01/25 00:49:03;;;;;;;8.13;7.32;;;22.60;30.10;;;;;;5045579;28;20029;-44
2021/01/25 00:51:29;;;;;;;9.43;7.72;;;22.50;30.00;;;;;;5041630;28;20040;-47
2021/01/25 00:53:54;;;;;;;8.90;7.43;;;22.50;30.00;;;;;;5026956;28;20352;-46
2021/01/25 00:56:20;;;;;;;10.43;7.43;;;22.50;30.00;;;;;;5042620;28;20068;-43
2021/01/25 00:58:46;;;;;;;8.63;7.43;;;22.50;30.00;;;;;;5038930;28;20124;-44
2021/01/25 01:01:12;;;;;;;8.60;7.45;;;22.50;30.00;;;;;;5007691;28;20034;-45
2021/01/25 01:03:38;;;;;;;9.30;7.30;;;22.50;30.00;;;;;;5034457;28;20021;-46
2021/01/25 01:06:04;;;;;;;8.75;7.45;;;22.40;30.00;;;;;;5040086;28;20074;-46
2021/01/25 01:08:29;;;;;;;8.32;6.78;;;22.50;30.00;;;;;;5049499;28;20116;-45
2021/01/25 01:10:55;;;;;;;8.30;6.88;;;22.40;30.00;;;;;;5047943;28;20103;-51
2021/01/25 01:13:21;;;;;;;8.15;6.65;;;22.40;30.00;;;;;;5043945;28;20090;-49
2021/01/25 01:15:47;;;;;;;7.43;6.50;;;22.40;30.00;;;;;;5040580;28;20111;-44
2021/01/25 01:18:13;;;;;;;9.40;6.72;;;22.40;30.60;;;;;;5040815;28;20024;-49
2021/01/25 01:20:39;;;;;;;7.72;6.53;;;22.40;30.00;;;;;;5038318;28;20029;-47
2021/01/25 01:23:05;;;;;;;8.27;6.55;;;22.40;30.00;;;;;;5046964;28;20048;-46
2021/01/25 01:25:31;;;;;;;9.00;6.95;;;22.40;30.00;;;;;;5042119;28;20021;-49
2021/01/25 01:27:56;;;;;;;8.02;6.55;;;22.40;30.00;;;;;;5036823;28;20364;-47
2021/01/25 01:30:22;;;;;;;8.50;7.03;;;22.40;30.10;;;;;;5031243;28;20410;-46
2021/01/25 01:32:48;;;;;;;8.38;6.50;;;22.40;30.10;;;;;;5022091;28;20025;-48
2021/01/25 01:35:14;;;;;;;9.13;6.20;;;22.40;30.10;;;;;;5042510;28;20148;-48
2021/01/25 01:37:40;;;;;;;6.60;5.70;;;22.30;30.10;;;;;;5047768;28;20052;-48
2021/01/25 01:40:09;;;;;;;8.38;6.22;;;22.30;30.20;;;;;;5040772;28;20037;-47
2021/01/25 01:42:36;;;;;;;7.75;6.38;;;22.30;30.20;;;;;;5037252;28;20107;-43
2021/01/25 01:45:03;;;;;;;7.75;6.45;;;22.30;30.20;;;;;;5035257;28;20157;-44
2021/01/25 01:47:30;;;;;;;7.68;6.10;;;22.30;30.20;;;;;;5044782;28;20033;-49
2021/01/25 01:49:56;;;;;;;8.60;6.50;;;22.30;30.20;;;;;;5033906;28;20511;-48
2021/01/25 01:52:23;;;;;;;6.93;5.70;;;22.30;30.20;;;;;;5042053;28;20029;-43
2021/01/25 01:54:50;;;;;;;7.57;6.18;;;22.30;30.10;;;;;;5034773;28;20129;-46
2021/01/25 01:57:16;;;;;;;7.50;5.80;;;22.20;30.10;;;;;;5045344;28;20065;-48
2021/01/25 01:59:42;;;;;;;7.30;5.97;;;22.20;30.10;;;;;;5040642;28;20029;-48
2021/01/25 02:02:11;;;;;;;7.35;5.90;;;22.20;30.10;;;;;;5042251;28;20111;-50
2021/01/25 02:04:38;;;;;;;7.40;5.85;;;22.20;30.10;;;;;;5043681;28;20051;-45
2021/01/25 02:07:06;;;;;;;7.88;6.22;;;22.20;30.10;;;;;;5042308;28;20078;-47
2021/01/25 02:09:36;;;;;;;6.50;5.45;;;22.20;30.10;;;;;;5041444;28;20414;-47
2021/01/25 02:12:04;;;;;;;7.00;5.80;;;22.20;30.10;;;;;;5037601;28;20021;-43
2021/01/25 02:14:31;;;;;;;6.28;5.28;;;22.10;30.00;;;;;;5035639;28;20128;-45
2021/01/25 02:16:58;;;;;;;8.07;5.80;;;22.10;30.10;;;;;;5037526;28;20053;-45
2021/01/25 02:19:32;;;;;;;7.30;5.47;;;22.10;30.20;;;;;;5043220;28;20440;-46
2021/01/25 02:22:16;;;;;;;6.93;5.10;;;22.10;30.30;;;;;;5045690;28;20041;-43
2021/01/25 02:25:01;;;;;;;7.32;5.43;;;22.10;30.30;;;;;;5036381;28;20030;-43
2021/01/25 02:27:33;;;;;;;8.00;5.50;;;22.10;30.30;;;;;;5054569;28;20448;-46
2021/01/25 02:29:59;;;;;;;6.80;5.97;;;22.10;30.30;;;;;;5044525;28;20057;-47
2021/01/25 02:32:30;;;;;;;6.90;5.07;;;22.10;30.20;;;;;;5044231;28;20036;-48
2021/01/25 02:34:56;;;;;;;6.82;4.88;;;22.00;30.10;;;;;;5040877;28;20050;-45
2021/01/25 02:37:23;;;;;;;6.20;4.82;;;22.00;30.10;;;;;;5043914;28;20029;-44
2021/01/25 02:39:52;;;;;;;5.85;4.82;;;22.10;30.20;;;;;;5045274;28;20022;-47
2021/01/25 02:42:19;;;;;;;6.30;4.68;;;22.00;30.10;;;;;;5048922;28;20415;-46
2021/01/25 02:44:47;;;;;;;6.20;4.88;;;22.00;30.00;;;;;;5050294;28;20036;-46
2021/01/25 02:47:14;;;;;;;5.68;4.78;;;22.00;30.00;;;;;;5045570;28;20029;-48
2021/01/25 02:49:40;;;;;;;6.53;4.85;;;22.00;30.00;;;;;;5044363;28;20029;-49
2021/01/25 02:52:06;;;;;;;5.60;4.70;;;22.00;30.00;;;;;;5039012;28;20044;-43
2021/01/25 02:54:33;;;;;;;5.13;4.57;;;22.00;30.00;;;;;;5054261;28;20376;-48
2021/01/25 02:56:58;;;;;;;5.47;4.80;;;22.00;30.00;;;;;;5038738;28;20037;-46
2021/01/25 02:59:25;;;;;;;4.40;4.00;;;22.00;30.00;;;;;;5038000;28;20025;-45
2021/01/25 03:01:51;;;;;;;6.03;4.85;;;22.00;30.00;;;;;;5047801;28;20021;-46
2021/01/25 03:04:17;;;;;;;6.35;4.70;;;22.00;30.00;;;;;;5044269;28;20108;-45
2021/01/25 03:06:43;;;;;;;5.88;4.38;;;21.90;30.00;;;;;;5029351;28;20550;-50
2021/01/25 03:09:09;;;;;;;6.05;4.10;;;21.90;30.00;;;;;;5044655;28;20022;-49
2021/01/25 03:11:39;;;;;;;6.20;4.53;;;21.90;30.00;;;;;;5052464;28;20028;-46
2021/01/25 03:14:10;;;;;;;4.85;4.03;;;21.90;30.00;;;;;;5048041;28;20418;-46
2021/01/25 03:16:36;;;;;;;6.18;4.20;;;21.90;30.00;;;;;;5049691;28;20033;-44
2021/01/25 03:19:03;;;;;;;5.38;4.18;;;21.90;30.00;;;;;;5044850;28;20033;-47
2021/01/25 03:21:30;;;;;;;4.35;3.90;;;21.90;30.00;;;;;;5051726;28;20044;-47
2021/01/25 03:23:56;;;;;;;5.50;3.97;;;21.90;30.00;;;;;;5044668;28;20388;-45
2021/01/25 03:26:21;;;;;;;4.72;3.80;;;21.80;30.00;;;;;;5050675;28;20044;-42
2021/01/25 03:28:47;;;;;;;4.10;3.70;;;21.90;30.00;;;;;;5047065;28;20436;-48
2021/01/25 03:31:13;;;;;;;5.65;4.25;;;21.80;30.00;;;;;;5038257;28;20057;-48
2021/01/25 03:33:41;;;;;;;4.32;3.53;;;21.80;30.00;;;;;;5046152;28;20029;-43
2021/01/25 03:36:07;;;;;;;4.93;3.70;;;21.80;30.00;;;;;;5048056;28;20037;-43
2021/01/25 03:38:33;;;;;;;5.07;3.78;;;21.80;30.00;;;;;;5050305;28;20041;-47
2021/01/25 03:40:59;;;;;;;4.75;4.00;;;21.80;30.00;;;;;;5052454;28;20384;-44
2021/01/25 03:43:25;;;;;;;4.53;3.67;;;21.80;30.00;;;;;;5040448;28;20463;-47
2021/01/25 03:45:51;;;;;;;4.72;3.67;;;21.80;30.00;;;;;;5052055;28;20080;-47
2021/01/25 03:48:16;;;;;;;4.80;3.83;;;21.80;30.10;;;;;;5052982;28;20037;-45
2021/01/25 03:50:42;;;;;;;5.38;4.32;;;21.80;30.10;;;;;;5046427;28;20043;-47
2021/01/25 03:53:08;;;;;;;4.28;3.45;;;21.70;30.10;;;;;;5038212;28;20152;-45
2021/01/25 03:55:34;;;;;;;4.60;3.85;;;21.70;30.10;;;;;;5033117;28;20098;-44
2021/01/25 03:57:59;;;;;;;5.40;4.00;;;21.70;30.20;;;;;;5040870;28;20440;-49
2021/01/25 04:00:25;;;;;;;4.80;3.78;;;21.70;30.20;;;;;;5041956;28;20408;-43
2021/01/25 04:02:51;;;;;;;4.88;3.60;;;21.70;30.20;;;;;;5038112;28;20051;-42
2021/01/25 04:05:17;;;;;;;4.60;3.67;;;21.70;30.20;;;;;;5044607;28;20455;-43
2021/01/25 04:07:45;;;;;;;4.28;3.55;;;21.70;30.20;;;;;;5037049;28;20326;-44
2021/01/25 04:10:13;;;;;;;4.47;3.78;;;21.70;30.10;;;;;;5044131;28;20487;-42
2021/01/25 04:12:39;;;;;;;4.25;3.70;;;21.70;30.10;;;;;;5039796;28;20021;-45
2021/01/25 04:15:06;;;;;;;4.47;3.53;;;21.70;30.10;;;;;;5048991;28;20091;-42
2021/01/25 04:17:32;;;;;;;5.15;3.70;;;21.70;30.00;;;;;;5049832;28;20029;-43
2021/01/25 04:19:58;;;;;;;4.10;3.25;;;21.70;30.00;;;;;;5050259;28;20029;-43
2021/01/25 04:22:24;;;;;;;3.88;3.15;;;21.70;30.00;;;;;;5037295;28;20021;-48
2021/01/25 04:24:49;;;;;;;4.03;3.45;;;21.70;30.00;;;;;;5040342;28;20025;-47
2021/01/25 04:27:16;;;;;;;4.68;3.35;;;21.60;30.00;;;;;;5036714;28;20032;-43
2021/01/25 04:29:42;;;;;;;5.28;3.55;;;21.60;30.00;;;;;;5047142;28;20027;-47
2021/01/25 04:32:09;;;;;;;4.00;3.30;;;21.60;30.00;;;;;;5047752;28;20028;-43
2021/01/25 04:34:34;;;;;;;4.32;3.28;;;21.60;30.00;;;;;;5054128;28;20053;-51
2021/01/25 04:37:00;;;;;;;4.15;3.38;;;21.60;30.10;;;;;;5044571;28;20025;-46
2021/01/25 04:39:26;;;;;;;4.25;3.42;;;21.60;30.00;;;;;;5039963;28;20045;-48
2021/01/25 04:41:52;;;;;;;4.05;3.25;;;21.60;30.10;;;;;;5038997;28;20090;-48
2021/01/25 04:44:20;;;;;;;3.97;3.00;;;21.50;30.10;;;;;;5047862;28;20032;-45
2021/01/25 04:46:45;;;;;;;4.65;3.25;;;21.60;30.20;;;;;;5040697;28;20025;-46
2021/01/25 04:49:14;;;;;;;3.80;3.00;;;21.60;30.20;;;;;;5049956;28;20051;-49
2021/01/25 04:51:41;;;;;;;3.58;3.05;;;21.50;30.20;;;;;;5039538;28;20055;-44
2021/01/25 04:54:08;;;;;;;3.85;3.10;;;21.50;30.30;;;;;;5035686;28;20041;-48
2021/01/25 04:56:35;;;;;;;3.63;2.83;;;21.50;30.30;;;;;;5045117;28;20032;-44
2021/01/25 04:59:01;;;;;;;4.70;3.35;;;21.50;30.40;;;;;;5046663;28;20033;-49
2021/01/25 05:01:27;;;;;;;3.20;2.90;;;21.50;30.40;;;;;;5043212;28;20123;-46
2021/01/25 05:03:53;;;;;;;3.13;2.28;;;21.50;30.40;;;;;;5044631;28;20097;-49
2021/01/25 05:06:21;;;;;;;4.70;3.33;;;21.50;30.50;;;;;;5053268;28;20079;-52
2021/01/25 05:08:48;;;;;;;4.85;3.00;;;21.50;30.40;;;;;;5052538;28;20108;-50
2021/01/25 05:11:18;;;;;;;4.30;3.22;;;21.50;30.40;;;;;;5052641;28;20032;-52
2021/01/25 05:13:46;;;;;;;3.85;2.80;;;21.50;30.40;;;;;;5045811;28;20321;-49
2021/01/25 05:16:16;;;;;;;4.00;3.15;;;21.50;30.40;;;;;;5039477;28;20232;-45
2021/01/25 05:18:42;;;;;;;4.03;2.85;;;21.40;30.40;;;;;;5054010;28;20043;-42
2021/01/25 05:21:09;;;;;;;3.35;2.85;;;21.50;30.40;;;;;;5049795;28;20030;-47
2021/01/25 05:23:41;;;;;;;3.58;2.67;;;21.40;30.40;;;;;;5050380;28;20052;-50
2021/01/25 05:26:08;;;;;;;3.30;2.60;;;21.40;30.40;;;;;;5053277;28;20175;-51
2021/01/25 05:28:43;;;;;;;3.67;2.95;;;21.40;30.40;;;;;;5053921;28;20029;-53
2021/01/25 05:31:23;;;;;;;4.00;2.85;;;21.40;30.40;;;;;;5053987;28;20036;-53
2021/01/25 05:33:50;;;;;;;3.45;2.70;;;21.40;30.50;;;;;;5040029;28;20052;-49
2021/01/25 05:36:20;;;;;;;3.63;2.67;;;21.40;30.50;;;;;;5051724;28;20146;-43
2021/01/25 05:38:47;;;;;;;3.00;2.45;;;21.40;30.50;;;;;;5048022;28;20025;-50
2021/01/25 05:41:15;;;;;;;3.22;2.47;;;21.40;30.50;;;;;;5034380;28;20021;-48
2021/01/25 05:43:41;;;;;;;2.92;2.53;;;21.40;30.60;;;;;;5036189;28;20096;-45
2021/01/25 05:46:11;;;;;;;3.20;2.80;;;21.40;30.50;;;;;;5034568;28;20114;-48
2021/01/25 05:48:37;;;;;;;3.33;3.00;;;21.40;30.50;;;;;;5052911;28;20029;-43
2021/01/25 05:51:18;;;;;;;3.35;2.65;;;21.30;30.40;;;;;;5050191;28;20033;-44
2021/01/25 05:53:45;;;;;;;3.15;2.70;;;21.40;30.50;;;;;;5051625;28;20021;-46
2021/01/25 05:56:13;;;;;;;2.83;2.17;;;21.30;30.50;;;;;;5052933;28;20120;-48
2021/01/25 05:58:40;;;;;;;3.70;2.72;;;21.30;30.50;;;;;;5036155;28;20116;-44
2021/01/25 06:01:09;;;;;;;3.78;2.65;;;21.30;30.50;;;;;;5036963;28;20452;-46
2021/01/25 06:03:37;;;;;;;3.10;2.50;;;21.30;30.40;;;;;;5056187;28;20025;-46
2021/01/25 06:06:12;;;;;;;2.75;2.45;;;21.30;30.40;;;;;;5052083;28;20033;-46
2021/01/25 06:08:52;;;;;;;3.47;2.67;;;21.30;30.40;;;;;;5054681;28;20379;-46
2021/01/25 06:11:20;;;;;;;3.08;2.50;;;21.30;30.30;;;;;;5043508;28;20032;-47
2021/01/25 06:13:56;;;;;;;3.22;2.75;;;21.30;30.20;;;;;;5050533;28;20033;-47
2021/01/25 06:16:27;;;;;;;2.75;2.53;;;21.30;30.20;;;;;;5050111;28;20033;-47
2021/01/25 06:19:02;;;;;;;2.88;2.33;;;21.30;30.30;;;;;;5054206;28;20025;-45
2021/01/25 06:21:33;;;;;;;3.55;2.60;;;21.30;30.20;;;;;;5056137;28;20475;-45
2021/01/25 06:24:01;;;;;;;3.40;2.67;;;21.20;30.10;;;;;;5055898;28;20033;-43
2021/01/25 06:26:30;;;;;;;3.42;2.55;;;21.20;30.10;;;;;;5056461;28;20125;-45
2021/01/25 06:29:00;;;;;;;3.20;2.55;;;21.20;30.00;;;;;;5056883;28;20086;-48
2021/01/25 06:31:26;;;;;;;3.75;2.55;;;21.20;30.00;;;;;;5054961;28;20033;-45
2021/01/25 06:33:52;;;;;;;3.95;2.50;;;21.20;30.00;;;;;;5056087;28;20049;-47
2021/01/25 06:36:20;;;;;;;3.15;2.30;;;21.20;30.00;;;;;;5056915;28;20371;-45
2021/01/25 06:38:49;;;;;;;2.72;2.50;;;21.20;30.00;;;;;;5046478;28;20796;-43
2021/01/25 06:41:17;;;;;;;3.30;2.40;;;21.20;30.00;;;;;;5057490;28;20108;-45
2021/01/25 06:43:48;;;;;;;3.58;2.50;;;21.20;29.90;;;;;;5047025;28;20033;-45
2021/01/25 06:46:21;;;;;;;3.78;2.60;;;21.20;29.90;;;;;;5056848;28;20033;-47
2021/01/25 06:48:52;;;;;;;3.10;2.63;;;21.20;29.90;;;;;;5052317;28;20060;-46
2021/01/25 06:51:22;;;;;;;4.22;2.50;;;21.10;29.80;;;;;;5044490;28;20458;-44
2021/01/25 06:53:49;;;;;;;3.33;2.40;;;21.10;29.90;;;;;;5046156;28;20102;-48
2021/01/25 06:56:15;;;;;;;3.88;2.38;;;21.10;29.90;;;;;;5054569;28;20021;-50
2021/01/25 06:58:46;;;;;;;4.10;2.30;;;21.10;30.00;;;;;;5056514;28;20040;-49
2021/01/25 07:01:17;;;;;;;3.10;2.40;;;21.10;30.00;;;;;;5046391;28;20025;-47
2021/01/25 07:03:58;;;;;;;2.83;2.20;;;21.10;30.00;;;;;;5040755;28;20028;-47
2021/01/25 07:06:37;;;;;;;3.20;2.20;;;21.10;30.00;;;;;;5042708;28;20028;-45
2021/01/25 07:09:05;;;;;;;2.58;2.10;;;21.10;30.00;;;;;;5054379;28;20051;-49
2021/01/25 07:11:33;;;;;;;2.63;1.92;;;21.10;30.10;;;;;;5057064;28;20112;-48
2021/01/25 07:13:59;;;;;;;3.45;2.20;;;21.10;30.10;;;;;;5044959;28;20106;-47
2021/01/25 07:16:26;;;;;;;3.45;2.72;;;21.00;30.10;;;;;;5056365;28;20105;-43
2021/01/25 07:18:53;;;;;;;2.63;1.92;;;21.00;30.10;;;;;;5054753;28;22078;-42
2021/01/25 07:21:21;;;;;;;2.25;2.00;;;21.00;30.20;;;;;;5054601;28;20041;-49
2021/01/25 07:23:49;;;;;;;2.85;1.90;;;21.10;30.30;;;;;;5044947;28;20025;-48
2021/01/25 07:26:17;;;;;;;3.08;1.90;;;21.00;30.20;;;;;;5049930;28;20032;-49
2021/01/25 07:28:44;;;;;;;3.95;2.13;;;21.00;30.80;;;;;;5046395;28;20029;-48
2021/01/25 07:31:11;;;;;;;3.92;2.47;;;21.00;30.10;;;;;;5036433;28;20103;-51
2021/01/25 07:33:40;;;;;;;3.13;2.50;;;21.00;30.00;;;;;;5010842;28;20040;-44
2021/01/25 07:36:06;;;;;;;3.42;2.45;;;21.00;30.00;;;;;;5035887;28;20052;-48
2021/01/25 07:38:32;;;;;;;3.50;2.40;;;21.00;30.00;;;;;;5050020;28;20513;-45
2021/01/25 07:41:00;;;;;;;3.58;2.67;;;21.00;30.10;;;;;;5055707;28;20041;-52
2021/01/25 07:43:28;;;;;;;3.17;2.42;;;21.00;30.00;;;;;;5054085;28;20036;-51
2021/01/25 07:46:07;;;;;;;4.13;2.80;;;21.00;30.00;;;;;;5055520;28;20037;-51
2021/01/25 07:48:34;;;;;;;4.07;3.22;;;21.00;30.00;;;;;;5052797;28;20033;-50
2021/01/25 07:51:00;;;;;;;4.78;3.10;;;21.00;30.00;;;;;;5054977;28;20029;-52
2021/01/25 07:53:33;;;;;;;6.90;3.47;;;21.00;30.00;;;;;;5027349;28;20526;-47
2021/01/25 07:55:59;;;;;;;5.65;3.97;;;21.00;30.00;;;;;;5042596;28;20041;-53
2021/01/25 07:58:36;;;;;;;5.28;3.97;;;21.00;30.10;;;;;;5051420;28;20094;-48
2021/01/25 08:01:12;;;;;;;6.55;5.25;;;21.00;30.40;;;;;;5048776;28;20040;-58
2021/01/25 08:03:42;;;;;;;7.47;5.70;;;21.00;30.90;;;;;;5046760;28;20025;-52
2021/01/25 08:06:10;;;;;;;7.88;5.93;;;21.00;31.20;;;;;;5048887;28;20030;-62
2021/01/25 08:08:38;;;;;;;7.78;6.38;;;21.00;31.40;;;;;;5035165;28;20091;-52
2021/01/25 08:11:08;;;;;;;9.85;7.38;;;21.10;31.70;;;;;;5042112;28;20758;-51
2021/01/25 08:13:42;;;;;;;9.30;7.45;;;21.20;32.00;;;;;;5025035;28;20452;-56
2021/01/25 08:16:15;;;;;;;10.73;7.63;;;21.30;32.10;;;;;;5047568;28;20075;-54
2021/01/25 08:18:56;;;;;;;11.98;7.75;;;21.40;32.20;;;;;;5030042;28;20060;-47
2021/01/25 08:21:33;;;;;;;10.82;8.73;;;21.40;32.40;;;;;;5048734;28;20349;-50
2021/01/25 08:24:01;;;;;;;12.35;8.60;;;21.60;32.50;;;;;;5043093;28;20043;-52
2021/01/25 08:26:29;;;;;;;11.18;8.73;;;21.70;32.50;;;;;;5039161;28;20037;-45
2021/01/25 08:29:02;;;;;;;12.30;9.48;;;21.70;32.40;;;;;;5027384;28;20384;-50
2021/01/25 08:31:39;;;;;;;12.65;9.57;;;21.80;32.30;;;;;;5041701;28;20040;-47
2021/01/25 08:34:17;;;;;;;13.50;8.57;;;21.90;32.20;;;;;;5041028;28;20440;-48
2021/01/25 08:36:42;;;;;;;14.32;10.73;;;22.00;32.20;;;;;;5045191;28;20061;-46
2021/01/25 08:39:12;;;;;;;13.75;10.52;;;22.10;32.10;;;;;;5051591;28;20060;-45
2021/01/25 08:41:44;;;;;;;13.18;11.05;;;22.20;32.10;;;;;;5021564;28;20032;-47
2021/01/25 08:44:15;;;;;;;14.82;12.15;;;22.20;32.00;;;;;;5034459;28;20041;-44
2021/01/25 08:46:42;;;;;;;17.80;13.55;;;22.30;32.00;;;;;;5047568;28;20044;-47
2021/01/25 08:49:31;;;;;;;16.77;14.23;;;22.40;32.00;;;;;;5048494;28;20403;-50
2021/01/25 08:52:02;;;;;;;16.73;13.82;;;22.40;31.90;;;;;;5038677;28;20033;-47
2021/01/25 08:54:35;;;;;;;16.17;14.38;;;22.50;31.90;;;;;;5041870;28;20045;-49
2021/01/25 08:57:00;;;;;;;18.05;14.93;;;22.50;31.80;;;;;;5022197;28;20095;-49
2021/01/25 08:59:39;;;;;;;18.77;14.65;;;22.60;31.70;;;;;;5038297;28;20045;-46
2021/01/25 09:02:17;;;;;;;19.80;16.55;;;22.70;31.60;;;;;;5045515;28;20029;-44
2021/01/25 09:04:43;;;;;;;17.70;15.13;;;22.70;31.40;;;;;;5042450;28;20456;-47
2021/01/25 09:07:15;;;;;;;19.20;15.73;;;22.80;31.30;;;;;;5042717;28;20035;-46
2021/01/25 09:09:43;;;;;;;16.08;14.38;;;22.80;31.20;;;;;;5038176;28;20045;-49
2021/01/25 09:12:10;;;;;;;16.95;13.85;;;22.80;30.80;;;;;;5042255;28;20031;-44
2021/01/25 09:14:36;;;;;;;17.30;14.27;;;22.80;30.50;;;;;;5047108;28;20095;-45
2021/01/25 09:17:02;;;;;;;16.17;13.73;;;22.90;30.50;;;;;;5044012;28;20049;-48
2021/01/25 09:19:28;;;;;;;19.95;15.30;;;22.90;30.40;;;;;;5041827;28;20028;-48
2021/01/25 09:21:54;;;;;;;20.55;14.38;;;23.00;30.40;;;;;;5042598;28;20026;-46
2021/01/25 09:24:20;;;;;;;18.58;14.88;;;23.00;30.40;;;;;;5019196;28;20361;-44
2021/01/25 09:26:46;;;;;;;17.13;14.65;;;23.00;30.30;;;;;;5026982;28;20410;-45
2021/01/25 09:29:12;;;;;;;18.27;14.55;;;23.00;30.20;;;;;;5037553;28;20060;-43
2021/01/25 09:31:41;;;;;;;18.02;14.63;;;23.00;30.20;;;;;;5045873;28;20025;-46
2021/01/25 09:34:07;;;;;;;18.63;15.27;;;23.00;30.20;;;;;;5021413;28;20041;-43
2021/01/25 09:36:33;;;;;;;18.83;15.10;;;23.00;30.20;;;;;;5036368;28;20409;-42
2021/01/25 09:38:59;;;;;;;15.82;14.13;;;23.00;30.20;;;;;;5037149;28;20029;-46
2021/01/25 09:41:25;;;;;;;17.88;14.48;;;23.00;30.20;;;;;;5028350;28;20037;-44
2021/01/25 09:43:51;;;;;;;15.23;12.85;;;23.00;30.10;;;;;;5043041;28;20502;-44
2021/01/25 09:46:16;;;;;;;15.10;12.18;;;23.00;30.10;;;;;;5024418;28;20029;-50
2021/01/25 09:48:42;;;;;;;15.93;11.90;;;23.00;30.00;;;;;;5046137;28;20043;-42
2021/01/25 09:51:11;;;;;;;13.05;11.57;;;23.00;30.00;;;;;;5044256;28;20037;-47
2021/01/25 09:53:36;;;;;;;16.27;12.05;;;23.00;29.90;;;;;;5044767;28;20337;-44
2021/01/25 09:56:03;;;;;;;13.95;11.43;;;23.00;29.90;;;;;;5040369;28;20051;-43
2021/01/25 09:58:29;;;;;;;12.38;11.07;;;23.00;29.90;;;;;;5043407;28;20040;-44
2021/01/25 10:00:55;;;;;;;14.43;11.80;;;23.00;30.40;;;;;;5046023;28;20037;-43
2021/01/25 10:03:20;;;;;;;13.77;11.75;;;22.90;29.90;;;;;;5045749;28;20030;-44
2021/01/25 10:05:46;;;;;;;13.20;10.68;;;22.90;29.90;;;;;;5043820;28;20028;-43
2021/01/25 10:08:12;;;;;;;14.40;11.93;;;22.90;29.90;;;;;;5050808;28;20033;-46
2021/01/25 10:10:38;;;;;;;13.15;11.23;;;22.90;29.80;;;;;;5034935;28;20341;-45
2021/01/25 10:13:05;;;;;;;14.07;10.95;;;22.90;29.80;;;;;;5041468;28;20044;-43
2021/01/25 10:15:33;;;;;;;13.43;11.45;;;22.90;29.70;;;;;;5040019;28;20046;-47
2021/01/25 10:18:00;;;;;;;13.27;11.40;;;22.80;29.70;;;;;;5051086;28;20033;-46
2021/01/25 10:20:26;;;;;;;14.43;11.43;;;22.90;29.70;;;;;;5036714;28;20408;-44
2021/01/25 10:22:52;;;;;;;15.65;12.48;;;22.80;29.60;;;;;;5034775;28;20125;-47
2021/01/25 10:25:18;;;;;;;13.95;12.45;;;22.80;29.60;;;;;;5045901;28;20057;-43
2021/01/25 10:27:45;;;;;;;17.92;14.18;;;22.80;29.70;;;;;;5040359;28;20022;-44
2021/01/25 10:30:12;;;;;;;16.63;13.77;;;22.80;29.70;;;;;;5035919;28;20025;-43
2021/01/25 10:32:38;;;;;;;18.38;15.50;;;22.80;30.20;;;;;;5025089;28;20021;-44
2021/01/25 10:35:06;;;;;;;18.90;16.42;;;22.80;29.80;;;;;;5039604;28;20052;-43
2021/01/25 10:37:32;;;;;;;17.60;15.60;;;22.80;29.90;;;;;;5042837;28;20024;-43
2021/01/25 10:39:58;;;;;;;20.58;17.27;;;22.80;30.00;;;;;;5048249;28;20070;-42
2021/01/25 10:42:24;;;;;;;20.50;17.90;;;22.80;30.00;;;;;;5046751;28;20056;-43
2021/01/25 10:44:49;;;;;;;20.38;18.17;;;22.80;30.10;;;;;;5040755;28;20065;-43
2021/01/25 10:47:18;;;;;;;24.67;20.60;;;22.80;30.20;;;;;;5034679;28;20034;-44
2021/01/25 10:49:45;;;;;;;19.90;17.45;;;22.80;30.30;;;;;;5047962;28;20475;-46
2021/01/25 10:52:12;;;;;;;20.83;18.33;;;22.80;30.40;;;;;;5037710;28;20109;-41
2021/01/25 10:54:38;;;;;;;22.77;20.02;;;22.80;30.50;;;;;;5050827;28;20033;-44
2021/01/25 10:57:05;;;;;;;23.75;19.90;;;22.80;30.60;;;;;;5033309;28;20094;-45
2021/01/25 10:59:31;;;;;;;22.83;20.38;;;22.80;30.70;;;;;;5046541;28;20067;-49
2021/01/25 11:01:57;;;;;;;22.00;19.60;;;22.80;30.80;;;;;;5044028;28;20017;-42
2021/01/25 11:04:23;;;;;;;23.85;20.00;;;22.80;30.80;;;;;;5050142;28;20029;-44
2021/01/25 11:06:49;;;;;;;25.70;22.02;;;22.80;30.90;;;;;;5048131;28;20029;-42
2021/01/25 11:09:18;;;;;;;24.95;21.00;;;22.80;30.90;;;;;;5047966;28;20109;-46
2021/01/25 11:11:44;;;;;;;22.92;19.65;;;22.80;30.90;;;;;;5014961;28;20041;-50
2021/01/25 11:14:11;;;;;;;22.58;20.15;;;22.80;30.90;;;;;;5040403;28;20072;-46
2021/01/25 11:16:42;;;;;;;23.70;19.98;;;22.90;31.10;;;;;;5051385;28;20035;-53
2021/01/25 11:19:08;;;;;;;21.88;19.35;;;22.80;31.00;;;;;;5047438;28;20503;-42
2021/01/25 11:21:34;;;;;;;23.25;19.90;;;22.80;31.10;;;;;;5043809;28;20037;-49
2021/01/25 11:24:00;;;;;;;24.60;21.60;;;22.80;31.10;;;;;;5046304;28;20123;-43
2021/01/25 11:26:28;;;;;;;24.13;21.35;;;22.80;31.20;;;;;;5046364;28;20405;-51
2021/01/25 11:28:53;;;;;;;23.60;20.40;;;22.80;31.90;;;;;;5043230;28;20368;-48
2021/01/25 11:31:19;;;;;;;22.70;20.13;;;22.90;31.30;;;;;;5050523;28;20037;-43
2021/01/25 11:33:45;;;;;;;23.90;21.15;;;22.90;31.40;;;;;;5028217;28;20036;-46
2021/01/25 11:36:11;;;;;;;25.52;21.95;;;22.90;31.50;;;;;;5053064;28;20045;-45
2021/01/25 11:38:37;;;;;;;24.60;21.75;;;22.90;31.50;;;;;;5041691;28;20164;-52
2021/01/25 11:41:03;;;;;;;22.35;19.92;;;22.90;31.60;;;;;;5047478;28;20032;-50
2021/01/25 11:43:29;;;;;;;24.48;21.38;;;22.90;31.60;;;;;;5042441;28;20446;-43
2021/01/25 11:45:55;;;;;;;24.65;20.80;;;22.90;31.60;;;;;;5024307;28;20065;-48
2021/01/25 11:48:21;;;;;;;25.38;22.23;;;22.90;31.60;;;;;;5046682;28;20098;-41
2021/01/25 11:50:48;;;;;;;24.33;21.55;;;22.90;31.70;;;;;;5044267;28;20044;-45
2021/01/25 11:53:14;;;;;;;24.90;22.25;;;22.90;31.70;;;;;;5047444;28;20024;-44
2021/01/25 11:55:41;;;;;;;23.80;21.30;;;22.90;31.70;;;;;;5042024;28;20041;-51
2021/01/25 11:58:10;;;;;;;23.67;21.05;;;22.90;31.70;;;;;;5044150;28;20036;-42
2021/01/25 12:00:36;;;;;;;25.10;21.58;;;22.90;31.80;;;;;;5051236;28;20379;-45
2021/01/25 12:03:03;;;;;;;25.73;21.17;;;22.90;31.80;;;;;;5042907;28;20037;-47
2021/01/25 12:05:29;;;;;;;25.27;21.88;;;22.90;31.80;;;;;;5039725;28;20033;-45
2021/01/25 12:07:58;;;;;;;25.90;22.98;;;22.90;31.80;;;;;;5038002;28;20491;-47
2021/01/25 12:10:24;;;;;;;25.65;22.67;;;22.90;31.90;;;;;;5024487;28;20029;-47
2021/01/25 12:12:50;;;;;;;27.05;22.50;;;23.00;31.90;;;;;;5050000;28;20357;-49
2021/01/25 12:15:16;;;;;;;24.95;22.23;;;23.00;31.90;;;;;;5026892;28;20048;-49
2021/01/25 12:17:42;;;;;;;25.23;22.50;;;23.00;31.90;;;;;;5027795;28;20033;-49
2021/01/25 12:20:08;;;;;;;25.42;22.17;;;23.00;32.00;;;;;;5045854;28;20429;-44
2021/01/25 12:22:34;;;;;;;27.48;22.77;;;23.00;32.00;;;;;;5046832;28;20025;-44
2021/01/25 12:25:00;;;;;;;25.88;22.55;;;23.00;32.00;;;;;;5029834;28;20063;-45
2021/01/25 12:27:25;;;;;;;26.95;23.05;;;23.00;32.00;;;;;;5006297;28;20028;-41
2021/01/25 12:29:51;;;;;;;25.67;22.58;;;23.00;32.00;;;;;;5042920;28;20396;-44
2021/01/25 12:32:17;;;;;;;27.45;24.17;;;23.00;32.00;;;;;;5050011;28;20029;-58
2021/01/25 12:34:43;;;;;;;25.27;22.58;;;23.00;32.00;;;;;;5040052;28;20356;-45
2021/01/25 12:37:09;;;;;;;26.23;23.42;;;23.00;32.00;;;;;;5029812;28;20471;-49
2021/01/25 12:39:35;;;;;;;26.83;23.58;;;23.00;31.90;;;;;;5044077;28;20356;-46
2021/01/25 12:42:01;;;;;;;27.88;23.58;;;23.00;31.90;;;;;;5023937;28;20029;-49